sensor_id;sensor_type;location;lat;lon;timestamp;temperature;humidity
70051;SHT30;57391;51.306;22.680;2023-05-10T00:00:01;7.01;55.89
70051;SHT30;57391;51.306;22.680;2023-05-10T00:02:59;6.97;56.15
70051;SHT30;57391;51.306;22.680;2023-05-10T00:05:26;6.89;56.64
70051;SHT30;57391;51.306;22.680;2023-05-10T00:07:54;6.81;56.91
70051;SHT30;57391;51.306;22.680;2023-05-10T00:10:23;6.75;57.07
70051;SHT30;57391;51.306;22.680;2023-05-10T00:12:50;6.69;57.31
70051;SHT30;57391;51.306;22.680;2023-05-10T00:15:17;6.63;57.58
70051;SHT30;57391;51.306;22.680;2023-05-10T00:17:44;6.56;57.85
70051;SHT30;57391;51.306;22.680;2023-05-10T00:20:14;6.49;58.02
70051;SHT30;57391;51.306;22.680;2023-05-10T00:22:41;6.42;58.20
70051;SHT30;57391;51.306;22.680;2023-05-10T00:25:08;6.38;58.26
70051;SHT30;57391;51.306;22.680;2023-05-10T00:27:37;6.35;58.34
70051;SHT30;57391;51.306;22.680;2023-05-10T00:30:04;6.30;58.62
70051;SHT30;57391;51.306;22.680;2023-05-10T00:32:33;6.25;58.76
70051;SHT30;57391;51.306;22.680;2023-05-10T00:34:59;6.20;58.93
70051;SHT30;57391;51.306;22.680;2023-05-10T00:37:27;6.16;59.18
70051;SHT30;57391;51.306;22.680;2023-05-10T00:39:58;6.10;59.29
70051;SHT30;57391;51.306;22.680;2023-05-10T00:42:25;6.05;59.42
70051;SHT30;57391;51.306;22.680;2023-05-10T00:44:53;6.01;59.61
70051;SHT30;57391;51.306;22.680;2023-05-10T00:47:20;5.98;59.81
70051;SHT30;57391;51.306;22.680;2023-05-10T00:49:48;5.92;60.02
70051;SHT30;57391;51.306;22.680;2023-05-10T00:52:16;5.86;60.25
70051;SHT30;57391;51.306;22.680;2023-05-10T00:54:44;5.80;60.45
70051;SHT30;57391;51.306;22.680;2023-05-10T00:57:11;5.76;60.58
70051;SHT30;57391;51.306;22.680;2023-05-10T00:59:38;5.70;60.82
70051;SHT30;57391;51.306;22.680;2023-05-10T01:02:06;5.64;61.12
70051;SHT30;57391;51.306;22.680;2023-05-10T01:04:33;5.57;61.38
70051;SHT30;57391;51.306;22.680;2023-05-10T01:07:03;5.53;61.49
70051;SHT30;57391;51.306;22.680;2023-05-10T01:09:30;5.45;61.78
70051;SHT30;57391;51.306;22.680;2023-05-10T01:11:59;5.41;61.94
70051;SHT30;57391;51.306;22.680;2023-05-10T01:14:29;5.37;62.09
70051;SHT30;57391;51.306;22.680;2023-05-10T01:16:57;5.34;62.29
70051;SHT30;57391;51.306;22.680;2023-05-10T01:19:27;5.28;62.48
70051;SHT30;57391;51.306;22.680;2023-05-10T01:22:03;5.26;62.63
70051;SHT30;57391;51.306;22.680;2023-05-10T01:34:13;5.15;62.94
70051;SHT30;57391;51.306;22.680;2023-05-10T01:36:45;5.13;63.02
70051;SHT30;57391;51.306;22.680;2023-05-10T01:39:55;5.10;63.07
70051;SHT30;57391;51.306;22.680;2023-05-10T01:42:42;5.06;63.12
70051;SHT30;57391;51.306;22.680;2023-05-10T01:45:30;5.05;63.17
70051;SHT30;57391;51.306;22.680;2023-05-10T01:48:06;5.03;63.20
70051;SHT30;57391;51.306;22.680;2023-05-10T01:50:37;5.01;63.28
70051;SHT30;57391;51.306;22.680;2023-05-10T01:53:11;4.99;63.31
70051;SHT30;57391;51.306;22.680;2023-05-10T01:55:46;4.99;63.33
70051;SHT30;57391;51.306;22.680;2023-05-10T01:58:39;4.98;63.40
70051;SHT30;57391;51.306;22.680;2023-05-10T02:01:11;4.96;63.45
70051;SHT30;57391;51.306;22.680;2023-05-10T02:03:40;4.94;63.56
70051;SHT30;57391;51.306;22.680;2023-05-10T02:06:10;4.90;63.67
70051;SHT30;57391;51.306;22.680;2023-05-10T02:08:42;4.86;63.80
70051;SHT30;57391;51.306;22.680;2023-05-10T02:11:13;4.83;63.83
70051;SHT30;57391;51.306;22.680;2023-05-10T02:13:41;4.81;63.88
70051;SHT30;57391;51.306;22.680;2023-05-10T02:16:11;4.80;63.81
70051;SHT30;57391;51.306;22.680;2023-05-10T02:18:41;4.82;63.78
70051;SHT30;57391;51.306;22.680;2023-05-10T02:21:09;4.82;63.79
70051;SHT30;57391;51.306;22.680;2023-05-10T02:23:39;4.85;63.71
70051;SHT30;57391;51.306;22.680;2023-05-10T02:26:07;4.87;63.59
70051;SHT30;57391;51.306;22.680;2023-05-10T02:28:36;4.89;63.50
70051;SHT30;57391;51.306;22.680;2023-05-10T02:31:05;4.92;63.54
70051;SHT30;57391;51.306;22.680;2023-05-10T02:33:34;4.93;63.47
70051;SHT30;57391;51.306;22.680;2023-05-10T02:36:04;4.93;63.47
70051;SHT30;57391;51.306;22.680;2023-05-10T02:38:34;4.92;63.43
70051;SHT30;57391;51.306;22.680;2023-05-10T02:41:03;4.92;63.48
70051;SHT30;57391;51.306;22.680;2023-05-10T02:43:34;4.91;63.50
70051;SHT30;57391;51.306;22.680;2023-05-10T02:46:04;4.89;63.50
70051;SHT30;57391;51.306;22.680;2023-05-10T02:48:30;4.89;63.49
70051;SHT30;57391;51.306;22.680;2023-05-10T02:51:00;4.89;63.50
70051;SHT30;57391;51.306;22.680;2023-05-10T02:53:34;4.91;63.41
70051;SHT30;57391;51.306;22.680;2023-05-10T02:56:05;4.92;63.37
70051;SHT30;57391;51.306;22.680;2023-05-10T02:58:42;4.94;63.33
70051;SHT30;57391;51.306;22.680;2023-05-10T03:01:09;4.95;63.29
70051;SHT30;57391;51.306;22.680;2023-05-10T03:03:36;4.97;63.28
70051;SHT30;57391;51.306;22.680;2023-05-10T03:06:04;4.99;63.20
70051;SHT30;57391;51.306;22.680;2023-05-10T03:08:31;5.01;63.11
70051;SHT30;57391;51.306;22.680;2023-05-10T03:11:24;5.04;63.11
70051;SHT30;57391;51.306;22.680;2023-05-10T03:14:34;5.04;63.12
70051;SHT30;57391;51.306;22.680;2023-05-10T03:17:45;5.02;63.25
70051;SHT30;57391;51.306;22.680;2023-05-10T03:20:25;5.02;63.35
70051;SHT30;57391;51.306;22.680;2023-05-10T03:23:07;5.03;63.22
70051;SHT30;57391;51.306;22.680;2023-05-10T03:25:47;5.05;63.30
70051;SHT30;57391;51.306;22.680;2023-05-10T03:28:20;5.06;63.40
70051;SHT30;57391;51.306;22.680;2023-05-10T03:30:52;5.10;63.39
70051;SHT30;57391;51.306;22.680;2023-05-10T03:33:23;5.17;63.32
70051;SHT30;57391;51.306;22.680;2023-05-10T03:35:50;5.24;63.26
70051;SHT30;57391;51.306;22.680;2023-05-10T03:38:17;5.31;63.29
70051;SHT30;57391;51.306;22.680;2023-05-10T03:40:46;5.35;63.30
70051;SHT30;57391;51.306;22.680;2023-05-10T03:43:14;5.40;63.29
70051;SHT30;57391;51.306;22.680;2023-05-10T03:45:42;5.46;63.24
70051;SHT30;57391;51.306;22.680;2023-05-10T03:48:09;5.70;63.14
70051;SHT30;57391;51.306;22.680;2023-05-10T03:50:36;6.99;61.53
70051;SHT30;57391;51.306;22.680;2023-05-10T03:53:04;8.96;57.99
70051;SHT30;57391;51.306;22.680;2023-05-10T03:55:31;10.82;54.23
70051;SHT30;57391;51.306;22.680;2023-05-10T03:58:00;12.48;50.79
70051;SHT30;57391;51.306;22.680;2023-05-10T04:00:28;13.87;47.87
70051;SHT30;57391;51.306;22.680;2023-05-10T04:02:55;15.17;45.44
70051;SHT30;57391;51.306;22.680;2023-05-10T04:05:23;16.49;42.77
70051;SHT30;57391;51.306;22.680;2023-05-10T04:07:52;17.56;39.74
70051;SHT30;57391;51.306;22.680;2023-05-10T04:10:19;18.43;37.74
70051;SHT30;57391;51.306;22.680;2023-05-10T04:12:47;19.18;36.19
70051;SHT30;57391;51.306;22.680;2023-05-10T04:15:14;19.67;34.89
70051;SHT30;57391;51.306;22.680;2023-05-10T04:17:41;20.22;33.98
70051;SHT30;57391;51.306;22.680;2023-05-10T04:20:08;20.73;32.85
70051;SHT30;57391;51.306;22.680;2023-05-10T04:22:36;21.29;32.24
70051;SHT30;57391;51.306;22.680;2023-05-10T04:25:05;21.86;31.20
70051;SHT30;57391;51.306;22.680;2023-05-10T04:27:32;22.50;30.44
70051;SHT30;57391;51.306;22.680;2023-05-10T04:30:02;23.09;29.24
70051;SHT30;57391;51.306;22.680;2023-05-10T04:32:31;23.49;28.47
70051;SHT30;57391;51.306;22.680;2023-05-10T04:34:58;23.83;28.20
70051;SHT30;57391;51.306;22.680;2023-05-10T04:37:25;24.22;27.47
70051;SHT30;57391;51.306;22.680;2023-05-10T04:39:52;24.71;27.12
70051;SHT30;57391;51.306;22.680;2023-05-10T04:42:20;25.26;26.59
70051;SHT30;57391;51.306;22.680;2023-05-10T04:44:47;25.78;25.97
70051;SHT30;57391;51.306;22.680;2023-05-10T04:47:14;26.15;25.19
70051;SHT30;57391;51.306;22.680;2023-05-10T04:49:42;26.31;25.00
70051;SHT30;57391;51.306;22.680;2023-05-10T04:52:10;26.24;24.62
70051;SHT30;57391;51.306;22.680;2023-05-10T04:54:38;25.09;24.93
70051;SHT30;57391;51.306;22.680;2023-05-10T04:57:05;23.11;26.16
70051;SHT30;57391;51.306;22.680;2023-05-10T04:59:32;21.35;27.83
70051;SHT30;57391;51.306;22.680;2023-05-10T05:02:02;19.99;29.00
70051;SHT30;57391;51.306;22.680;2023-05-10T05:04:30;19.52;30.17
70051;SHT30;57391;51.306;22.680;2023-05-10T05:06:58;20.08;29.61
70051;SHT30;57391;51.306;22.680;2023-05-10T05:09:25;20.46;29.97
70051;SHT30;57391;51.306;22.680;2023-05-10T05:11:52;19.98;30.46
70051;SHT30;57391;51.306;22.680;2023-05-10T05:14:19;19.06;31.35
70051;SHT30;57391;51.306;22.680;2023-05-10T05:16:47;18.07;32.14
70051;SHT30;57391;51.306;22.680;2023-05-10T05:19:14;17.25;33.29
70051;SHT30;57391;51.306;22.680;2023-05-10T05:21:42;17.38;34.35
70051;SHT30;57391;51.306;22.680;2023-05-10T05:24:09;18.55;33.69
70051;SHT30;57391;51.306;22.680;2023-05-10T05:26:36;19.76;31.97
70051;SHT30;57391;51.306;22.680;2023-05-10T05:29:04;20.23;30.68
70051;SHT30;57391;51.306;22.680;2023-05-10T05:31:31;20.06;30.91
70051;SHT30;57391;51.306;22.680;2023-05-10T05:33:58;18.90;31.85
70051;SHT30;57391;51.306;22.680;2023-05-10T05:36:26;17.95;33.87
70051;SHT30;57391;51.306;22.680;2023-05-10T05:38:53;17.11;34.90
70051;SHT30;57391;51.306;22.680;2023-05-10T05:41:24;16.27;35.94
70051;SHT30;57391;51.306;22.680;2023-05-10T05:43:52;15.54;37.10
70051;SHT30;57391;51.306;22.680;2023-05-10T05:46:19;14.99;38.36
70051;SHT30;57391;51.306;22.680;2023-05-10T05:48:46;14.62;39.28
70051;SHT30;57391;51.306;22.680;2023-05-10T05:51:13;14.39;40.10
70051;SHT30;57391;51.306;22.680;2023-05-10T05:53:40;14.14;40.33
70051;SHT30;57391;51.306;22.680;2023-05-10T05:56:08;13.90;41.17
70051;SHT30;57391;51.306;22.680;2023-05-10T05:58:50;13.65;41.86
70051;SHT30;57391;51.306;22.680;2023-05-10T06:01:17;13.44;42.30
70051;SHT30;57391;51.306;22.680;2023-05-10T06:03:45;13.26;42.76
70051;SHT30;57391;51.306;22.680;2023-05-10T06:06:12;13.12;43.32
70051;SHT30;57391;51.306;22.680;2023-05-10T06:08:40;13.05;44.76
70051;SHT30;57391;51.306;22.680;2023-05-10T06:11:07;12.99;45.06
70051;SHT30;57391;51.306;22.680;2023-05-10T06:13:34;13.00;44.59
70051;SHT30;57391;51.306;22.680;2023-05-10T06:16:02;13.17;44.76
70051;SHT30;57391;51.306;22.680;2023-05-10T06:18:30;13.34;45.24
70051;SHT30;57391;51.306;22.680;2023-05-10T06:20:57;13.46;44.46
70051;SHT30;57391;51.306;22.680;2023-05-10T06:23:24;13.56;44.30
70051;SHT30;57391;51.306;22.680;2023-05-10T06:25:51;13.71;44.22
70051;SHT30;57391;51.306;22.680;2023-05-10T06:28:19;13.84;43.79
70051;SHT30;57391;51.306;22.680;2023-05-10T06:30:46;13.95;43.49
70051;SHT30;57391;51.306;22.680;2023-05-10T06:33:14;13.99;42.96
70051;SHT30;57391;51.306;22.680;2023-05-10T06:35:42;14.12;43.61
70051;SHT30;57391;51.306;22.680;2023-05-10T06:38:09;14.32;43.82
70051;SHT30;57391;51.306;22.680;2023-05-10T06:40:37;14.37;43.63
70051;SHT30;57391;51.306;22.680;2023-05-10T06:43:08;14.33;44.10
70051;SHT30;57391;51.306;22.680;2023-05-10T06:45:36;14.34;44.38
70051;SHT30;57391;51.306;22.680;2023-05-10T06:48:04;14.32;43.88
70051;SHT30;57391;51.306;22.680;2023-05-10T06:50:32;14.34;44.59
70051;SHT30;57391;51.306;22.680;2023-05-10T06:53:01;14.51;44.29
70051;SHT30;57391;51.306;22.680;2023-05-10T06:55:29;14.88;43.60
70051;SHT30;57391;51.306;22.680;2023-05-10T06:57:56;15.30;42.46
70051;SHT30;57391;51.306;22.680;2023-05-10T07:08:20;16.98;37.79
70051;SHT30;57391;51.306;22.680;2023-05-10T07:10:48;17.24;37.20
70051;SHT30;57391;51.306;22.680;2023-05-10T07:13:15;17.51;36.52
70051;SHT30;57391;51.306;22.680;2023-05-10T07:15:42;17.77;35.90
70051;SHT30;57391;51.306;22.680;2023-05-10T07:18:09;17.91;36.11
70051;SHT30;57391;51.306;22.680;2023-05-10T07:20:36;18.17;35.96
70051;SHT30;57391;51.306;22.680;2023-05-10T07:23:03;18.33;34.52
70051;SHT30;57391;51.306;22.680;2023-05-10T07:25:30;18.43;34.49
70051;SHT30;57391;51.306;22.680;2023-05-10T07:27:57;18.61;33.97
70051;SHT30;57391;51.306;22.680;2023-05-10T07:30:25;18.75;33.60
70051;SHT30;57391;51.306;22.680;2023-05-10T07:32:52;18.92;34.09
70051;SHT30;57391;51.306;22.680;2023-05-10T07:35:19;18.83;33.67
70051;SHT30;57391;51.306;22.680;2023-05-10T07:37:46;18.54;33.37
70051;SHT30;57391;51.306;22.680;2023-05-10T07:40:13;18.32;34.05
70051;SHT30;57391;51.306;22.680;2023-05-10T07:42:40;18.03;33.27
70051;SHT30;57391;51.306;22.680;2023-05-10T07:45:07;17.74;33.56
70051;SHT30;57391;51.306;22.680;2023-05-10T07:47:35;17.59;33.88
70051;SHT30;57391;51.306;22.680;2023-05-10T07:50:02;17.66;33.53
70051;SHT30;57391;51.306;22.680;2023-05-10T07:52:30;17.85;33.48
70051;SHT30;57391;51.306;22.680;2023-05-10T07:54:57;18.12;34.42
70051;SHT30;57391;51.306;22.680;2023-05-10T07:57:24;18.35;33.96
70051;SHT30;57391;51.306;22.680;2023-05-10T07:59:50;18.58;33.17
70051;SHT30;57391;51.306;22.680;2023-05-10T08:02:18;18.69;30.92
70051;SHT30;57391;51.306;22.680;2023-05-10T08:04:44;18.79;30.75
70051;SHT30;57391;51.306;22.680;2023-05-10T08:07:12;18.86;29.41
70051;SHT30;57391;51.306;22.680;2023-05-10T08:09:39;18.82;28.63
70051;SHT30;57391;51.306;22.680;2023-05-10T08:12:06;18.77;29.74
70051;SHT30;57391;51.306;22.680;2023-05-10T08:14:34;18.82;29.07
70051;SHT30;57391;51.306;22.680;2023-05-10T08:17:03;18.88;28.21
70051;SHT30;57391;51.306;22.680;2023-05-10T08:19:30;18.81;27.43
70051;SHT30;57391;51.306;22.680;2023-05-10T08:21:58;18.81;28.08
70051;SHT30;57391;51.306;22.680;2023-05-10T08:24:25;18.68;26.99
70051;SHT30;57391;51.306;22.680;2023-05-10T08:26:52;18.50;28.03
70051;SHT30;57391;51.306;22.680;2023-05-10T08:29:19;18.36;28.51
70051;SHT30;57391;51.306;22.680;2023-05-10T08:31:46;18.34;29.39
70051;SHT30;57391;51.306;22.680;2023-05-10T08:34:14;18.23;29.30
70051;SHT30;57391;51.306;22.680;2023-05-10T08:36:41;18.11;29.40
70051;SHT30;57391;51.306;22.680;2023-05-10T08:39:08;18.05;30.05
70051;SHT30;57391;51.306;22.680;2023-05-10T08:41:35;18.07;30.68
70051;SHT30;57391;51.306;22.680;2023-05-10T08:44:07;18.12;30.59
70051;SHT30;57391;51.306;22.680;2023-05-10T08:46:35;18.14;29.83
70051;SHT30;57391;51.306;22.680;2023-05-10T08:49:06;18.11;29.04
70051;SHT30;57391;51.306;22.680;2023-05-10T08:51:36;18.10;29.65
70051;SHT30;57391;51.306;22.680;2023-05-10T08:54:10;18.09;29.70
70051;SHT30;57391;51.306;22.680;2023-05-10T08:56:38;18.01;29.34
70051;SHT30;57391;51.306;22.680;2023-05-10T08:59:05;17.87;29.33
70051;SHT30;57391;51.306;22.680;2023-05-10T09:01:33;17.71;29.14
70051;SHT30;57391;51.306;22.680;2023-05-10T09:04:03;17.61;30.07
70051;SHT30;57391;51.306;22.680;2023-05-10T09:06:31;17.63;30.00
70051;SHT30;57391;51.306;22.680;2023-05-10T09:08:59;17.62;29.75
70051;SHT30;57391;51.306;22.680;2023-05-10T09:11:28;17.72;30.14
70051;SHT30;57391;51.306;22.680;2023-05-10T09:13:56;17.79;29.79
70051;SHT30;57391;51.306;22.680;2023-05-10T09:16:23;17.72;29.21
70051;SHT30;57391;51.306;22.680;2023-05-10T09:18:51;17.64;28.96
70051;SHT30;57391;51.306;22.680;2023-05-10T09:21:19;17.66;28.88
70051;SHT30;57391;51.306;22.680;2023-05-10T09:23:46;17.60;29.69
70051;SHT30;57391;51.306;22.680;2023-05-10T09:26:16;17.57;28.94
70051;SHT30;57391;51.306;22.680;2023-05-10T09:28:50;17.47;28.42
70051;SHT30;57391;51.306;22.680;2023-05-10T09:31:23;17.47;28.94
70051;SHT30;57391;51.306;22.680;2023-05-10T09:33:52;17.54;29.54
70051;SHT30;57391;51.306;22.680;2023-05-10T09:36:20;17.64;29.44
70051;SHT30;57391;51.306;22.680;2023-05-10T09:38:53;17.59;28.92
70051;SHT30;57391;51.306;22.680;2023-05-10T09:41:24;17.57;28.80
70051;SHT30;57391;51.306;22.680;2023-05-10T09:43:55;17.50;28.55
70051;SHT30;57391;51.306;22.680;2023-05-10T09:46:22;17.43;28.84
70051;SHT30;57391;51.306;22.680;2023-05-10T09:48:50;17.32;29.06
70051;SHT30;57391;51.306;22.680;2023-05-10T09:51:21;17.27;29.26
70051;SHT30;57391;51.306;22.680;2023-05-10T09:54:10;17.23;29.29
70051;SHT30;57391;51.306;22.680;2023-05-10T09:56:43;17.22;29.67
70051;SHT30;57391;51.306;22.680;2023-05-10T09:59:11;17.13;28.69
70051;SHT30;57391;51.306;22.680;2023-05-10T10:01:39;17.06;29.37
70051;SHT30;57391;51.306;22.680;2023-05-10T10:04:07;17.07;30.03
70051;SHT30;57391;51.306;22.680;2023-05-10T10:06:37;17.08;30.07
70051;SHT30;57391;51.306;22.680;2023-05-10T10:09:06;17.05;29.23
70051;SHT30;57391;51.306;22.680;2023-05-10T10:11:35;17.00;29.37
70051;SHT30;57391;51.306;22.680;2023-05-10T10:14:05;17.08;30.03
70051;SHT30;57391;51.306;22.680;2023-05-10T10:16:32;17.18;30.08
70051;SHT30;57391;51.306;22.680;2023-05-10T10:18:59;17.28;30.42
70051;SHT30;57391;51.306;22.680;2023-05-10T10:21:27;17.33;29.48
70051;SHT30;57391;51.306;22.680;2023-05-10T10:23:54;17.33;29.67
70051;SHT30;57391;51.306;22.680;2023-05-10T10:26:21;17.32;29.80
70051;SHT30;57391;51.306;22.680;2023-05-10T10:34:51;17.17;29.29
70051;SHT30;57391;51.306;22.680;2023-05-10T10:37:21;17.17;29.83
70051;SHT30;57391;51.306;22.680;2023-05-10T10:39:48;17.25;30.21
70051;SHT30;57391;51.306;22.680;2023-05-10T10:42:43;17.24;29.84
70051;SHT30;57391;51.306;22.680;2023-05-10T10:45:13;17.19;29.69
70051;SHT30;57391;51.306;22.680;2023-05-10T10:47:41;17.09;29.63
70051;SHT30;57391;51.306;22.680;2023-05-10T10:50:09;17.02;29.59
70051;SHT30;57391;51.306;22.680;2023-05-10T10:52:42;16.98;29.69
70051;SHT30;57391;51.306;22.680;2023-05-10T11:03:03;16.87;29.18
70051;SHT30;57391;51.306;22.680;2023-05-10T11:05:46;16.86;29.09
70051;SHT30;57391;51.306;22.680;2023-05-10T11:08:16;16.88;29.03
70051;SHT30;57391;51.306;22.680;2023-05-10T11:16:17;16.84;28.38
70051;SHT30;57391;51.306;22.680;2023-05-10T11:21:33;16.90;29.28
70051;SHT30;57391;51.306;22.680;2023-05-10T11:24:31;16.92;27.24
70051;SHT30;57391;51.306;22.680;2023-05-10T11:27:00;16.86;27.36
70051;SHT30;57391;51.306;22.680;2023-05-10T11:29:28;16.87;27.59
70051;SHT30;57391;51.306;22.680;2023-05-10T11:31:56;16.91;27.54
70051;SHT30;57391;51.306;22.680;2023-05-10T11:34:27;17.02;28.21
70051;SHT30;57391;51.306;22.680;2023-05-10T11:36:57;17.09;27.49
70051;SHT30;57391;51.306;22.680;2023-05-10T11:39:28;17.14;27.32
70051;SHT30;57391;51.306;22.680;2023-05-10T11:41:58;17.18;27.52
70051;SHT30;57391;51.306;22.680;2023-05-10T11:44:29;17.19;27.36
70051;SHT30;57391;51.306;22.680;2023-05-10T11:47:04;17.17;26.83
70051;SHT30;57391;51.306;22.680;2023-05-10T11:49:35;17.16;26.71
70051;SHT30;57391;51.306;22.680;2023-05-10T11:52:03;17.16;27.45
70051;SHT30;57391;51.306;22.680;2023-05-10T11:54:52;17.25;27.49
70051;SHT30;57391;51.306;22.680;2023-05-10T11:57:26;17.25;26.93
70051;SHT30;57391;51.306;22.680;2023-05-10T11:59:59;17.24;26.90
70051;SHT30;57391;51.306;22.680;2023-05-10T12:02:53;17.23;26.54
70051;SHT30;57391;51.306;22.680;2023-05-10T12:05:20;17.20;26.07
70051;SHT30;57391;51.306;22.680;2023-05-10T12:07:48;17.18;26.82
70051;SHT30;57391;51.306;22.680;2023-05-10T12:10:14;17.21;27.38
70051;SHT30;57391;51.306;22.680;2023-05-10T12:12:44;17.19;26.95
70051;SHT30;57391;51.306;22.680;2023-05-10T12:15:21;17.15;26.59
70051;SHT30;57391;51.306;22.680;2023-05-10T12:18:08;17.13;27.30
70051;SHT30;57391;51.306;22.680;2023-05-10T12:20:37;17.16;27.18
70051;SHT30;57391;51.306;22.680;2023-05-10T12:23:05;17.21;26.56
70051;SHT30;57391;51.306;22.680;2023-05-10T12:25:37;17.20;26.53
70051;SHT30;57391;51.306;22.680;2023-05-10T12:28:07;17.21;26.40
70051;SHT30;57391;51.306;22.680;2023-05-10T12:30:36;17.22;27.36
70051;SHT30;57391;51.306;22.680;2023-05-10T12:33:09;17.24;26.75
70051;SHT30;57391;51.306;22.680;2023-05-10T12:35:45;17.21;26.82
70051;SHT30;57391;51.306;22.680;2023-05-10T12:38:34;17.20;26.94
70051;SHT30;57391;51.306;22.680;2023-05-10T12:41:05;17.20;26.94
70051;SHT30;57391;51.306;22.680;2023-05-10T12:43:36;17.15;26.64
70051;SHT30;57391;51.306;22.680;2023-05-10T12:46:12;17.09;26.58
70051;SHT30;57391;51.306;22.680;2023-05-10T12:48:41;17.03;26.99
70051;SHT30;57391;51.306;22.680;2023-05-10T12:51:10;16.95;27.09
70051;SHT30;57391;51.306;22.680;2023-05-10T12:53:39;16.93;26.95
70051;SHT30;57391;51.306;22.680;2023-05-10T12:56:06;16.92;27.07
70051;SHT30;57391;51.306;22.680;2023-05-10T12:58:34;16.90;28.05
70051;SHT30;57391;51.306;22.680;2023-05-10T13:01:02;16.93;28.29
70051;SHT30;57391;51.306;22.680;2023-05-10T13:03:31;17.03;29.34
70051;SHT30;57391;51.306;22.680;2023-05-10T13:05:59;17.12;28.98
70051;SHT30;57391;51.306;22.680;2023-05-10T13:08:26;17.16;27.94
70051;SHT30;57391;51.306;22.680;2023-05-10T13:10:55;17.17;28.47
70051;SHT30;57391;51.306;22.680;2023-05-10T13:13:23;17.16;26.98
70051;SHT30;57391;51.306;22.680;2023-05-10T13:15:50;17.12;27.56
70051;SHT30;57391;51.306;22.680;2023-05-10T13:18:17;17.09;27.76
70051;SHT30;57391;51.306;22.680;2023-05-10T13:20:44;17.13;28.64
70051;SHT30;57391;51.306;22.680;2023-05-10T13:23:12;17.17;27.93
70051;SHT30;57391;51.306;22.680;2023-05-10T13:25:39;17.13;27.93
70051;SHT30;57391;51.306;22.680;2023-05-10T13:28:07;17.10;27.86
70051;SHT30;57391;51.306;22.680;2023-05-10T13:30:34;17.01;27.72
70051;SHT30;57391;51.306;22.680;2023-05-10T13:33:01;16.95;28.23
70051;SHT30;57391;51.306;22.680;2023-05-10T13:35:29;16.94;28.25
70051;SHT30;57391;51.306;22.680;2023-05-10T13:37:56;16.93;28.21
70051;SHT30;57391;51.306;22.680;2023-05-10T13:40:24;17.02;29.81
70051;SHT30;57391;51.306;22.680;2023-05-10T13:42:51;17.13;29.51
70051;SHT30;57391;51.306;22.680;2023-05-10T13:45:19;17.23;29.99
70051;SHT30;57391;51.306;22.680;2023-05-10T13:47:47;17.31;28.96
70051;SHT30;57391;51.306;22.680;2023-05-10T13:50:14;17.33;28.54
70051;SHT30;57391;51.306;22.680;2023-05-10T13:52:42;17.37;28.50
70051;SHT30;57391;51.306;22.680;2023-05-10T13:55:09;17.42;28.44
70051;SHT30;57391;51.306;22.680;2023-05-10T13:57:38;17.46;28.66
70051;SHT30;57391;51.306;22.680;2023-05-10T14:00:06;17.54;29.24
70051;SHT30;57391;51.306;22.680;2023-05-10T14:02:37;17.56;28.58
70051;SHT30;57391;51.306;22.680;2023-05-10T14:05:04;17.56;27.90
70051;SHT30;57391;51.306;22.680;2023-05-10T14:07:32;17.52;27.86
70051;SHT30;57391;51.306;22.680;2023-05-10T14:10:00;17.49;27.62
70051;SHT30;57391;51.306;22.680;2023-05-10T14:12:27;17.50;28.28
70051;SHT30;57391;51.306;22.680;2023-05-10T14:14:55;17.50;27.53
70051;SHT30;57391;51.306;22.680;2023-05-10T14:17:24;17.49;28.02
70051;SHT30;57391;51.306;22.680;2023-05-10T14:19:51;17.48;27.84
70051;SHT30;57391;51.306;22.680;2023-05-10T14:22:19;17.50;28.52
70051;SHT30;57391;51.306;22.680;2023-05-10T14:24:47;17.43;26.82
70051;SHT30;57391;51.306;22.680;2023-05-10T14:27:14;17.36;27.46
70051;SHT30;57391;51.306;22.680;2023-05-10T14:29:42;17.34;28.12
70051;SHT30;57391;51.306;22.680;2023-05-10T14:32:09;17.31;27.93
70051;SHT30;57391;51.306;22.680;2023-05-10T14:34:37;17.29;27.82
70051;SHT30;57391;51.306;22.680;2023-05-10T14:37:04;17.23;26.75
70051;SHT30;57391;51.306;22.680;2023-05-10T14:39:31;17.17;27.03
70051;SHT30;57391;51.306;22.680;2023-05-10T14:41:59;17.13;27.36
70051;SHT30;57391;51.306;22.680;2023-05-10T14:44:27;17.12;27.98
70051;SHT30;57391;51.306;22.680;2023-05-10T14:46:54;17.13;27.69
70051;SHT30;57391;51.306;22.680;2023-05-10T14:49:22;17.15;28.00
70051;SHT30;57391;51.306;22.680;2023-05-10T14:51:52;17.17;28.28
70051;SHT30;57391;51.306;22.680;2023-05-10T14:54:20;17.18;27.38
70051;SHT30;57391;51.306;22.680;2023-05-10T14:56:47;17.12;27.33
70051;SHT30;57391;51.306;22.680;2023-05-10T14:59:16;17.12;27.85
70051;SHT30;57391;51.306;22.680;2023-05-10T15:01:43;17.11;28.07
70051;SHT30;57391;51.306;22.680;2023-05-10T15:04:11;17.07;27.23
70051;SHT30;57391;51.306;22.680;2023-05-10T15:06:39;17.02;27.20
70051;SHT30;57391;51.306;22.680;2023-05-10T15:09:07;17.00;27.33
70051;SHT30;57391;51.306;22.680;2023-05-10T15:11:38;16.98;27.91
70051;SHT30;57391;51.306;22.680;2023-05-10T15:14:05;16.94;28.30
70051;SHT30;57391;51.306;22.680;2023-05-10T15:16:32;16.91;28.42
70051;SHT30;57391;51.306;22.680;2023-05-10T15:19:00;16.90;28.04
70051;SHT30;57391;51.306;22.680;2023-05-10T15:21:27;16.91;28.32
70051;SHT30;57391;51.306;22.680;2023-05-10T15:23:54;16.91;28.22
70051;SHT30;57391;51.306;22.680;2023-05-10T15:26:21;16.92;28.47
70051;SHT30;57391;51.306;22.680;2023-05-10T15:28:48;16.92;28.17
70051;SHT30;57391;51.306;22.680;2023-05-10T15:31:16;16.90;28.23
70051;SHT30;57391;51.306;22.680;2023-05-10T15:33:43;16.88;28.54
70051;SHT30;57391;51.306;22.680;2023-05-10T15:36:10;16.88;29.15
70051;SHT30;57391;51.306;22.680;2023-05-10T15:38:38;16.86;28.30
70051;SHT30;57391;51.306;22.680;2023-05-10T15:41:05;16.81;28.34
70051;SHT30;57391;51.306;22.680;2023-05-10T15:43:32;16.77;28.89
70051;SHT30;57391;51.306;22.680;2023-05-10T15:45:59;16.71;28.52
70051;SHT30;57391;51.306;22.680;2023-05-10T15:48:26;16.65;28.12
70051;SHT30;57391;51.306;22.680;2023-05-10T15:50:54;16.59;27.79
70051;SHT30;57391;51.306;22.680;2023-05-10T15:53:23;16.53;28.70
70051;SHT30;57391;51.306;22.680;2023-05-10T15:55:50;16.50;29.42
70051;SHT30;57391;51.306;22.680;2023-05-10T15:58:18;16.46;29.19
70051;SHT30;57391;51.306;22.680;2023-05-10T16:00:45;16.42;29.50
70051;SHT30;57391;51.306;22.680;2023-05-10T16:03:13;16.36;29.03
70051;SHT30;57391;51.306;22.680;2023-05-10T16:05:39;16.30;28.98
70051;SHT30;57391;51.306;22.680;2023-05-10T16:08:07;16.26;29.15
70051;SHT30;57391;51.306;22.680;2023-05-10T16:10:34;16.24;29.67
70051;SHT30;57391;51.306;22.680;2023-05-10T16:13:02;16.21;29.89